Flight Track Log - Related Links

Times and Time Zones

All times are in EST time to prevent confusion due to time zone crossing. See the WIG8412 flight status page for this flight to view local times or setup timezone preferences in your user account.

Time Position Orientation Groundspeed Altitude Reporting Facility
EST Latitude Longitude Course Direction KTS MPH feet Rate Location/Type
Wed 07:33:14 AM 42.7392 -73.7989 168° South 94 108 1,000  Level Boston Center
Wed 07:33:20 AM 42.7372 -73.7983 168° South 88 101 1,100 985 Climbing Boston Center
Wed 07:34:21 AM 42.7453 -73.7661 71° East 126 145 2,100 927 Climbing Boston Center
Wed 07:35:10 AM 42.7697 -73.7453 32° Northeast 130 150 2,800 885 Climbing Boston Center
Wed 07:35:22 AM 42.7758 -73.7386 39° Northeast 139 160 3,000 667 Climbing Boston Center
Wed 07:36:22 AM 42.8083 -73.7144 29° Northeast 131 151 3,600 655 Climbing Boston Center
Wed 07:37:12 AM 42.8333 -73.6875 38° Northeast 136 157 4,200 689 Climbing Boston Center
Wed 07:37:23 AM 42.8381 -73.6808 46° Northeast 137 158 4,300 492 Climbing Boston Center
Wed 07:38:13 AM 42.8647 -73.6547 36° Northeast 141 162 4,700 448 Climbing Boston Center
Wed 07:38:30 AM 42.8722 -73.6456 42° Northeast 145 167 4,800 590 Climbing Boston Center
Wed 07:39:14 AM 42.8983 -73.6200 36° Northeast 150 173 5,300 667 Climbing Boston Center
Wed 07:39:24 AM 42.9036 -73.6153 33° Northeast 152 175 5,400 689 Climbing Boston Center
Wed 07:40:15 AM 42.9322 -73.5847 38° Northeast 153 176 6,000 689 Climbing Boston Center
Wed 07:40:25 AM 42.9383 -73.5772 42° Northeast 156 180 6,100 492 Climbing Boston Center
Wed 07:41:16 AM 42.9692 -73.5458 37° Northeast 154 177 6,500 500 Climbing Boston Center
Wed 07:41:25 AM 42.9706 -73.5414 67° East 154 177 6,600 492 Climbing Boston Center
Wed 07:42:17 AM 43.0042 -73.5083 36° Northeast 160 184 7,000 393 Climbing Boston Center
Wed 07:42:26 AM 43.0100 -73.5019 39° Northeast 159 183 7,000  Level Boston Center
Wed 07:43:18 AM 43.0414 -73.4683 38° Northeast 171 197 7,000  Level Boston Center
Wed 07:43:27 AM 43.0472 -73.4617 40° Northeast 173 199 7,000 -98 Level Boston Center
Wed 07:44:19 AM 43.0806 -73.4203 42° Northeast 186 214 6,900  Descending Boston Center
Wed 07:44:36 AM 43.0911 -73.4089 38° Northeast 195 224 7,000 98 Climbing Boston Center
Wed 07:45:20 AM 43.1228 -73.3736 39° Northeast 193 222 7,000 -57 Level Boston Center
Wed 07:46:21 AM 43.1664 -73.3292 37° Northeast 195 224 6,900  Descending Boston Center
Wed 07:47:22 AM 43.2117 -73.2836 36° Northeast 187 215 7,000 49 Climbing Boston Center
Wed 07:48:23 AM 43.2542 -73.2375 38° Northeast 193 222 7,000  Level Boston Center
Wed 07:49:25 AM 43.2972 -73.1919 38° Northeast 195 224 7,000  Level Boston Center

Login

Don't have an account? Register now (free) for customized features, flight alerts, and more!